Time,TemperatureF,DewpointF,PressureIn,WindDirection,WindDirectionDegrees,WindSpeedMPH,WindSpeedGustMPH,Humidity,HourlyPrecipIn,Conditions,Clouds,dailyrainin,SoftwareType,DateUTC
2013-11-18 05:40:00,53.3,50.0,30.08,West,272,0.0,0.0,89,0.00,,,0.00,weatherlink.com 1.10,2013-11-18 13:40:00,
2013-11-18 05:42:00,53.4,50.0,30.08,West,271,0.0,0.0,89,0.00,,,0.00,weatherlink.com 1.10,2013-11-18 13:42:00,
2013-11-18 05:57:00,53.7,51.0,30.08,West,272,0.0,0.0,89,0.00,,,0.00,weatherlink.com 1.10,2013-11-18 13:57:00,
2013-11-18 06:12:00,53.6,51.0,30.09,West,272,0.0,0.0,89,0.00,,,0.00,weatherlink.com 1.10,2013-11-18 14:12:00,
2013-11-18 06:27:00,52.8,49.0,30.09,West,271,0.0,0.0,88,0.00,,,0.00,weatherlink.com 1.10,2013-11-18 14:27:00,
2013-11-18 06:42:00,52.8,50.0,30.09,West,272,0.0,0.0,89,0.00,,,0.00,weatherlink.com 1.10,2013-11-18 14:42:00,
2013-11-18 06:57:00,52.8,50.0,30.10,West,272,0.0,0.0,90,0.00,,,0.00,weatherlink.com 1.10,2013-11-18 14:57:00,
2013-11-18 07:12:00,53.7,51.0,30.10,West,272,0.0,0.0,90,0.00,,,0.00,weatherlink.com 1.10,2013-11-18 15:12:00,
2013-11-18 07:27:00,55.6,53.0,30.11,West,272,0.0,0.0,90,0.00,,,0.00,weatherlink.com 1.10,2013-11-18 15:27:00,
2013-11-18 07:42:00,56.6,53.0,30.11,NNW,347,1.0,2.0,87,0.00,,,0.00,weatherlink.com 1.10,2013-11-18 15:42:00,
2013-11-18 07:57:00,57.9,53.0,30.11,SE,134,0.0,2.0,84,0.00,,,0.00,weatherlink.com 1.10,2013-11-18 15:57:00,
2013-11-18 08:12:00,58.8,53.0,30.11,ESE,117,1.0,2.0,82,0.00,,,0.00,weatherlink.com 1.10,2013-11-18 16:12:00,
2013-11-18 08:27:00,59.3,54.0,30.12,ENE,76,0.0,1.0,81,0.00,,,0.00,weatherlink.com 1.10,2013-11-18 16:27:00,
2013-11-18 08:43:00,59.8,54.0,30.12,East,86,1.0,2.0,80,0.00,,,0.00,weatherlink.com 1.10,2013-11-18 16:43:00,
2013-11-18 08:58:00,61.0,54.0,30.12,East,86,0.0,1.0,79,0.00,,,0.00,weatherlink.com 1.10,2013-11-18 16:58:00,
2013-11-18 09:13:00,62.6,55.0,30.12,ENE,65,0.0,3.0,76,0.00,,,0.00,weatherlink.com 1.10,2013-11-18 17:13:00,
2013-11-18 09:28:00,63.7,56.0,30.12,ENE,65,1.0,2.0,76,0.00,,,0.00,weatherlink.com 1.10,2013-11-18 17:28:00,
2013-11-18 09:43:00,64.9,56.0,30.12,NW,326,0.0,3.0,74,0.00,,,0.00,weatherlink.com 1.10,2013-11-18 17:43:00,
2013-11-18 09:58:00,64.7,56.0,30.12,WNW,283,1.0,2.0,73,0.00,,,0.00,weatherlink.com 1.10,2013-11-18 17:58:00,
2013-11-18 10:13:00,64.8,56.0,30.12,West,274,0.0,3.0,74,0.00,,,0.00,weatherlink.com 1.10,2013-11-18 18:13:00,
2013-11-18 10:28:00,65.2,56.0,30.11,SW,236,1.0,3.0,72,0.00,,,0.00,weatherlink.com 1.10,2013-11-18 18:28:00,
2013-11-18 10:43:00,66.6,56.0,30.11,South,179,0.0,2.0,69,0.00,,,0.00,weatherlink.com 1.10,2013-11-18 18:43:00,
2013-11-18 10:58:00,67.7,56.0,30.10,WNW,301,2.0,3.0,66,0.00,,,0.00,weatherlink.com 1.10,2013-11-18 18:58:00,
2013-11-18 11:13:00,67.0,56.0,30.09,WSW,252,1.0,5.0,68,0.00,,,0.00,weatherlink.com 1.10,2013-11-18 19:13:00,
2013-11-18 11:28:00,66.4,56.0,30.09,SW,231,6.0,6.0,69,0.00,,,0.00,weatherlink.com 1.10,2013-11-18 19:28:00,
2013-11-18 11:43:00,67.1,57.0,30.08,West,276,2.0,5.0,69,0.00,,,0.00,weatherlink.com 1.10,2013-11-18 19:43:00,
2013-11-18 11:58:00,68.7,56.0,30.07,WSW,245,1.0,6.0,65,0.00,,,0.00,weatherlink.com 1.10,2013-11-18 19:58:00,
2013-11-18 12:13:00,69.8,56.0,30.06,SE,145,0.0,6.0,62,0.00,,,0.00,weatherlink.com 1.10,2013-11-18 20:13:00,
2013-11-18 12:28:00,69.4,56.0,30.06,West,281,3.0,6.0,62,0.00,,,0.00,weatherlink.com 1.10,2013-11-18 20:28:00,
2013-11-18 12:43:00,68.1,56.0,30.06,NW,305,1.0,5.0,65,0.00,,,0.00,weatherlink.com 1.10,2013-11-18 20:43:00,
2013-11-18 12:58:00,67.9,56.0,30.05,WNW,293,7.0,7.0,65,0.00,,,0.00,weatherlink.com 1.10,2013-11-18 20:58:00,
2013-11-18 13:13:00,67.8,56.0,30.04,West,281,0.0,3.0,65,0.00,,,0.00,weatherlink.com 1.10,2013-11-18 21:13:00,
2013-11-18 13:28:00,68.0,55.0,30.04,West,277,0.0,4.0,64,0.00,,,0.00,weatherlink.com 1.10,2013-11-18 21:28:00,
2013-11-18 13:43:00,67.9,55.0,30.03,WSW,257,1.0,5.0,64,0.00,,,0.00,weatherlink.com 1.10,2013-11-18 21:43:00,
2013-11-18 13:58:00,68.1,55.0,30.03,West,279,3.0,3.0,64,0.00,,,0.00,weatherlink.com 1.10,2013-11-18 21:58:00,
2013-11-18 14:13:00,69.5,55.0,30.02,WSW,245,2.0,4.0,61,0.00,,,0.00,weatherlink.com 1.10,2013-11-18 22:13:00,
2013-11-18 14:28:00,70.0,53.0,30.02,SW,214,4.0,7.0,56,0.00,,,0.00,weatherlink.com 1.10,2013-11-18 22:28:00,
2013-11-18 14:43:00,69.8,53.0,30.02,WSW,238,2.0,7.0,56,0.00,,,0.00,weatherlink.com 1.10,2013-11-18 22:43:00,
2013-11-18 14:58:00,69.9,53.0,30.02,WSW,258,4.0,7.0,56,0.00,,,0.00,weatherlink.com 1.10,2013-11-18 22:58:00,
2013-11-18 15:13:00,68.0,54.0,30.02,West,277,4.0,8.0,62,0.00,,,0.00,weatherlink.com 1.10,2013-11-18 23:13:00,
2013-11-18 15:28:00,67.3,55.0,30.01,West,266,4.0,9.0,64,0.00,,,0.00,weatherlink.com 1.10,2013-11-18 23:28:00,
2013-11-18 15:43:00,66.4,54.0,30.02,WNW,290,4.0,10.0,65,0.00,,,0.00,weatherlink.com 1.10,2013-11-18 23:43:00,
2013-11-18 15:58:00,65.8,55.0,30.01,West,271,3.0,10.0,68,0.00,,,0.00,weatherlink.com 1.10,2013-11-18 23:58:00,
2013-11-18 16:13:00,65.1,55.0,30.02,West,278,1.0,6.0,69,0.00,,,0.00,weatherlink.com 1.10,2013-11-19 00:13:00,
2013-11-18 16:28:00,64.5,55.0,30.02,West,276,4.0,7.0,71,0.00,,,0.00,weatherlink.com 1.10,2013-11-19 00:28:00,
2013-11-18 16:43:00,63.9,55.0,30.02,West,278,5.0,6.0,73,0.00,,,0.00,weatherlink.com 1.10,2013-11-19 00:43:00,
2013-11-18 16:58:00,63.4,55.0,30.02,WNW,291,6.0,8.0,74,0.00,,,0.00,weatherlink.com 1.10,2013-11-19 00:58:00,
2013-11-18 17:13:00,63.1,55.0,30.02,WNW,303,7.0,8.0,75,0.00,,,0.00,weatherlink.com 1.10,2013-11-19 01:13:00,
2013-11-18 17:28:00,62.9,55.0,30.03,WNW,293,5.0,10.0,76,0.00,,,0.00,weatherlink.com 1.10,2013-11-19 01:28:00,
2013-11-18 17:43:00,62.8,55.0,30.03,WNW,293,3.0,10.0,76,0.00,,,0.00,weatherlink.com 1.10,2013-11-19 01:43:00,
2013-11-18 17:58:00,62.6,55.0,30.04,WNW,288,1.0,10.0,76,0.00,,,0.00,weatherlink.com 1.10,2013-11-19 01:58:00,
2013-11-18 18:13:00,62.4,55.0,30.05,West,279,2.0,9.0,76,0.00,,,0.00,weatherlink.com 1.10,2013-11-19 02:13:00,
2013-11-18 18:28:00,62.2,55.0,30.04,WSW,247,7.0,9.0,76,0.00,,,0.00,weatherlink.com 1.10,2013-11-19 02:28:00,
2013-11-18 18:43:00,62.0,55.0,30.04,West,280,1.0,7.0,77,0.00,,,0.00,weatherlink.com 1.10,2013-11-19 02:43:00,
2013-11-18 18:58:00,61.6,54.0,30.04,WNW,285,5.0,5.0,77,0.00,,,0.00,weatherlink.com 1.10,2013-11-19 02:58:00,
2013-11-18 19:13:00,61.5,54.0,30.05,WNW,298,4.0,6.0,77,0.00,,,0.00,weatherlink.com 1.10,2013-11-19 03:13:00,
2013-11-18 19:28:00,61.1,54.0,30.05,West,276,2.0,3.0,78,0.00,,,0.00,weatherlink.com 1.10,2013-11-19 03:28:00,
2013-11-18 19:43:00,60.9,54.0,30.06,West,279,1.0,3.0,79,0.00,,,0.00,weatherlink.com 1.10,2013-11-19 03:43:00,
2013-11-18 19:58:00,61.0,54.0,30.07,West,271,1.0,6.0,78,0.00,,,0.00,weatherlink.com 1.10,2013-11-19 03:58:00,
2013-11-18 20:13:00,61.1,54.0,30.06,West,263,1.0,5.0,78,0.00,,,0.00,weatherlink.com 1.10,2013-11-19 04:13:00,
2013-11-18 20:28:00,61.6,54.0,30.07,West,269,1.0,6.0,77,0.00,,,0.00,weatherlink.com 1.10,2013-11-19 04:28:00,
2013-11-18 20:43:00,61.9,54.0,30.07,WNW,290,2.0,6.0,76,0.00,,,0.00,weatherlink.com 1.10,2013-11-19 04:43:00,
2013-11-18 20:58:00,61.8,54.0,30.06,WNW,283,1.0,2.0,76,0.00,,,0.00,weatherlink.com 1.10,2013-11-19 04:58:00,
2013-11-18 21:13:00,61.8,54.0,30.07,West,280,0.0,3.0,76,0.00,,,0.00,weatherlink.com 1.10,2013-11-19 05:13:00,
2013-11-18 21:28:00,62.0,54.0,30.07,WNW,283,2.0,7.0,76,0.00,,,0.00,weatherlink.com 1.10,2013-11-19 05:28:00,
2013-11-18 21:43:00,62.1,54.0,30.07,WNW,295,4.0,6.0,76,0.00,,,0.00,weatherlink.com 1.10,2013-11-19 05:43:00,
2013-11-18 21:58:00,62.1,54.0,30.07,West,270,2.0,6.0,76,0.00,,,0.00,weatherlink.com 1.10,2013-11-19 05:58:00,
2013-11-18 22:13:00,62.0,55.0,30.07,WNW,283,3.0,4.0,77,0.00,,,0.00,weatherlink.com 1.10,2013-11-19 06:13:00,
2013-11-18 22:28:00,62.0,55.0,30.07,West,274,2.0,3.0,77,0.00,,,0.00,weatherlink.com 1.10,2013-11-19 06:28:00,
2013-11-18 22:43:00,62.0,55.0,30.07,WSW,255,1.0,3.0,77,0.00,,,0.00,weatherlink.com 1.10,2013-11-19 06:43:00,
2013-11-18 22:59:00,62.0,55.0,30.06,West,277,0.0,4.0,77,0.00,,,0.00,weatherlink.com 1.10,2013-11-19 06:59:00,
2013-11-18 23:14:00,61.9,55.0,30.06,West,271,0.0,1.0,77,0.00,,,0.00,weatherlink.com 1.10,2013-11-19 07:14:00,
2013-11-18 23:29:00,61.8,55.0,30.06,West,272,1.0,5.0,77,0.00,,,0.00,weatherlink.com 1.10,2013-11-19 07:29:00,
2013-11-18 23:44:00,61.8,54.0,30.05,West,277,0.0,3.0,76,0.00,,,0.00,weatherlink.com 1.10,2013-11-19 07:44:00,
2013-11-18 23:59:00,61.7,54.0,30.05,West,262,0.0,2.0,77,0.00,,,0.00,weatherlink.com 1.10,2013-11-19 07:59:00,